Monday, October 23, 2017, 1:11 PM EDT
Back to Local

KSFZ, Pawtucket, North Central State Airport

Location: Smithfield, RI, United States Lat: 41.917
Local Time: 1:11 PM EDT (17:11 GMT) Lon: -71.5
Time Zone: US/Eastern Elev: 439 ft

Show me the last for .
Show Decoded

2017-10-23 12:56 METAR KSFZ 231656Z AUTO VRB04KT 10SM OVC007 18/16 A3030 RMK AO2 CIG 005V010
                 SLP207 T01780161 =
2017-10-23 12:37 METAR KSFZ 231637Z AUTO 00000KT 9SM OVC005 16/15 A3031 RMK AO2 =
2017-10-23 11:56 METAR KSFZ 231556Z AUTO VRB03KT 7SM OVC003 15/14 A3034 RMK AO2 SLP219 T01500144
                 =
2017-10-23 10:56 METAR KSFZ 231456Z AUTO 00000KT 3SM BR OVC003 14/14 A3035 RMK AO2 SLP224
                 T01440144 56011 =
2017-10-23 10:51 METAR KSFZ 231451Z AUTO 00000KT 2SM BR OVC003 14/14 A3035 RMK AO2 VIS 1 1/4V4 =
2017-10-23 10:32 METAR KSFZ 231432Z AUTO 14003KT 1SM BR OVC003 14/14 A3036 RMK AO2 VIS 1/2V4 TSNO
                 =
2017-10-23 10:21 METAR KSFZ 231421Z AUTO 00000KT 2SM BR OVC003 14/14 A3036 RMK AO2 VIS 1/2V5 =
2017-10-23 10:11 METAR KSFZ 231411Z AUTO 00000KT 1SM BR OVC003 14/14 A3037 RMK AO2 =
2017-10-23 10:07 METAR KSFZ 231407Z AUTO 00000KT 1/2SM FG OVC003 13/13 A3037 RMK AO2 =
2017-10-23 09:56 METAR KSFZ 231356Z AUTO 00000KT 1/4SM FG OVC003 13/13 A3037 RMK AO2 SLP231
                 T01280128 =
2017-10-23 09:19 METAR KSFZ 231319Z AUTO 09003KT 1/4SM FG OVC003 12/12 A3037 RMK AO2 =
2017-10-23 09:08 METAR KSFZ 231308Z AUTO 10003KT 1/2SM FG OVC003 12/12 A3037 RMK AO2 =
2017-10-23 09:00 METAR KSFZ 231300Z AUTO 07004KT 3/4SM BR OVC003 12/12 A3038 RMK AO2 =
2017-10-23 08:56 METAR KSFZ 231256Z AUTO 06004KT 1 1/2SM BR OVC003 12/12 A3038 RMK AO2 SLP235
                 T01170117 =
2017-10-23 08:52 METAR KSFZ 231252Z AUTO 07003KT 2SM BR OVC003 12/12 A3038 RMK AO2 VIS 1 1/2V2
                 1/2 =
2017-10-23 07:56 METAR KSFZ 231156Z AUTO 03003KT 3SM BR OVC003 11/10 A3038 RMK AO2 SLP235
                 T01060100 10106 20083 53003 =
2017-10-23 07:39 METAR KSFZ 231139Z AUTO 00000KT 2 1/2SM BR OVC003 10/10 A3038 RMK AO2 =
2017-10-23 07:29 METAR KSFZ 231129Z AUTO 00000KT 1 1/4SM BR OVC003 10/10 A3038 RMK AO2 =
2017-10-23 07:25 METAR KSFZ 231125Z AUTO 00000KT 3/4SM BR OVC003 10/10 A3038 RMK AO2 =
2017-10-23 06:56 METAR KSFZ 231056Z AUTO 00000KT 1/2SM FG OVC003 10/09 A3037 RMK AO2 SLP232
                 T01000094 =
2017-10-23 06:47 METAR KSFZ 231047Z AUTO 00000KT 1/2SM FG OVC003 09/09 A3037 RMK AO2 =
2017-10-23 06:25 METAR KSFZ 231025Z AUTO 00000KT 1/4SM FG OVC003 09/09 A3037 RMK AO2 CIG 002V005
                 =
2017-10-23 05:56 METAR KSFZ 230956Z AUTO 00000KT 1/4SM FG OVC001 09/09 A3038 RMK AO2 SLP232
                 T00940089 =
2017-10-23 04:56 METAR KSFZ 230856Z AUTO 00000KT 1/4SM FG OVC001 09/09 A3037 RMK AO2 SLP231
                 T00890089 57007 =
2017-10-23 03:56 METAR KSFZ 230756Z AUTO 00000KT 1/4SM FG OVC001 09/09 A3038 RMK AO2 SLP234
                 T00890089 =
2017-10-23 02:56 METAR KSFZ 230656Z AUTO 00000KT 1/4SM FG OVC001 09/09 A3039 RMK AO2 SLP236
                 T00940094 =
2017-10-23 01:56 METAR KSFZ 230556Z AUTO 03003KT 1/4SM FG OVC001 11/11 A3040 RMK AO2 SLP238
                 T01060106 10139 20094 58005 =
2017-10-23 00:56 METAR KSFZ 230456Z AUTO 00000KT 1/4SM FG OVC001 11/11 A3041 RMK AO2 SLP241
                 T01060106 402670078 =
2017-10-23 00:04 METAR KSFZ 230404Z AUTO 33003KT 1/4SM FG OVC001 11/11 A3041 RMK AO2 =
2017-10-22 23:56 METAR KSFZ 230356Z AUTO 00000KT 1/2SM FG OVC001 10/10 A3041 RMK AO2 SLP243
                 T01000100 =
2017-10-22 23:54 METAR KSFZ 230354Z AUTO 02003KT 1/2SM FG OVC001 10/10 A3041 RMK AO2 =
2017-10-22 23:52 METAR KSFZ 230352Z AUTO 02004KT 1SM BR BKN001 10/10 A3041 RMK AO2 =
2017-10-22 23:46 METAR KSFZ 230346Z AUTO 00000KT 2 1/2SM BR BKN001 11/11 A3041 RMK AO2 =
2017-10-22 23:42 METAR KSFZ 230342Z AUTO 00000KT 1SM BR BKN001 11/11 A3041 RMK AO2 =
2017-10-22 23:32 METAR KSFZ 230332Z AUTO 00000KT 3/4SM BR VV002 11/10 A3041 RMK AO2 VIS 1/4V4 =
2017-10-22 23:27 METAR KSFZ 230327Z AUTO 00000KT 1 1/2SM BR FEW004 11/11 A3041 RMK AO2 VIS 1/2V4
                 TSNO =
2017-10-22 23:18 METAR KSFZ 230318Z AUTO 00000KT 1SM BR VV004 11/11 A3041 RMK AO2 =
2017-10-22 23:09 METAR KSFZ 230309Z AUTO 00000KT 1/2SM FG VV004 10/09 A3041 RMK AO2 =
2017-10-22 23:02 METAR KSFZ 230302Z AUTO 00000KT 1/2SM FG VV003 09/09 A3041 RMK AO2 =
2017-10-22 22:56 METAR KSFZ 230256Z AUTO 00000KT 1/2SM FG CLR 10/10 A3041 RMK AO2 VIS 1/4V2
                 SLP244 T01000100 50007 =
2017-10-22 22:48 METAR KSFZ 230248Z AUTO 00000KT 3/4SM BR CLR 11/11 A3041 RMK AO2 =
2017-10-22 22:45 METAR KSFZ 230245Z AUTO 00000KT 1 3/4SM BR CLR 11/10 A3041 RMK AO2 =
2017-10-22 21:56 METAR KSFZ 230156Z AUTO 00000KT 10SM CLR 11/11 A3042 RMK AO2 SLP246 T01110106 =
2017-10-22 20:56 METAR KSFZ 230056Z AUTO 12004KT 10SM CLR 12/11 A3040 RMK AO2 SLP241 T01220111 =
2017-10-22 19:56 METAR KSFZ 222356Z AUTO 12004KT 10SM CLR 14/11 A3039 RMK AO2 SLP238 T01440106
                 10267 20133 52006 =
2017-10-22 18:56 METAR KSFZ 222256Z AUTO 00000KT 10SM CLR 15/11 A3039 RMK AO2 SLP238 T01500111 =
2017-10-22 17:56 METAR KSFZ 222156Z AUTO 00000KT 10SM CLR 18/11 A3038 RMK AO2 SLP232 T01830111 =
2017-10-22 16:56 METAR KSFZ 222056Z AUTO 14003KT 10SM CLR 22/07 A3038 RMK AO2 SLP231 T02170072
                 53001 =
2017-10-22 15:56 METAR KSFZ 221956Z AUTO 15004KT 10SM CLR 23/07 A3037 RMK AO2 SLP230 T02330072 =
2017-10-22 14:56 METAR KSFZ 221856Z AUTO 12006KT 10SM CLR 25/09 A3037 RMK AO2 SLP229 T02500089 =
2017-10-22 13:56 METAR KSFZ 221756Z AUTO 12003KT 10SM CLR 26/07 A3037 RMK AO2 SLP230 T02610072
                 10261 20100 58012 =

Support USWX by starting your Amazon purchase here.